sensor_id;sensor_type;location;lat;lon;timestamp;pressure;altitude;pressure_sealevel;temperature;humidity
73558;BME280;61829;53.286;10.434;2023-03-01T00:02:00;102961.66;;;-4.19;94.05
73558;BME280;61829;53.286;10.434;2023-03-01T00:04:26;102956.41;;;-4.20;94.36
73558;BME280;61829;53.286;10.434;2023-03-01T00:06:53;102959.97;;;-4.23;94.03
73558;BME280;61829;53.286;10.434;2023-03-01T00:09:19;102952.16;;;-4.26;94.02
73558;BME280;61829;53.286;10.434;2023-03-01T00:11:45;102953.94;;;-4.28;94.06
73558;BME280;61829;53.286;10.434;2023-03-01T00:14:11;102953.06;;;-4.27;94.64
73558;BME280;61829;53.286;10.434;2023-03-01T00:16:40;102943.41;;;-4.28;94.01
73558;BME280;61829;53.286;10.434;2023-03-01T00:19:17;102944.34;;;-4.31;93.92
73558;BME280;61829;53.286;10.434;2023-03-01T00:21:44;102943.50;;;-4.31;93.98
73558;BME280;61829;53.286;10.434;2023-03-01T00:24:10;102941.78;;;-4.34;94.90
73558;BME280;61829;53.286;10.434;2023-03-01T00:26:36;102940.91;;;-4.33;94.46
73558;BME280;61829;53.286;10.434;2023-03-01T00:29:02;102940.09;;;-4.36;94.34
73558;BME280;61829;53.286;10.434;2023-03-01T00:31:30;102936.59;;;-4.35;94.21
73558;BME280;61829;53.286;10.434;2023-03-01T00:34:01;102948.84;;;-4.34;94.74
73558;BME280;61829;53.286;10.434;2023-03-01T00:36:31;102949.75;;;-4.35;94.60
73558;BME280;61829;53.286;10.434;2023-03-01T00:38:57;102953.25;;;-4.35;93.85
73558;BME280;61829;53.286;10.434;2023-03-01T00:41:23;102937.47;;;-4.36;94.43
73558;BME280;61829;53.286;10.434;2023-03-01T00:43:52;102944.50;;;-4.37;94.77
73558;BME280;61829;53.286;10.434;2023-03-01T00:46:20;102953.31;;;-4.38;94.16
73558;BME280;61829;53.286;10.434;2023-03-01T00:48:46;102950.78;;;-4.42;94.44
73558;BME280;61829;53.286;10.434;2023-03-01T00:51:23;102946.34;;;-4.40;94.41
73558;BME280;61829;53.286;10.434;2023-03-01T00:53:54;102944.63;;;-4.41;94.83
73558;BME280;61829;53.286;10.434;2023-03-01T00:56:20;102947.25;;;-4.41;95.10
73558;BME280;61829;53.286;10.434;2023-03-01T00:58:46;102943.78;;;-4.43;95.19
73558;BME280;61829;53.286;10.434;2023-03-01T01:01:18;102944.66;;;-4.43;95.05
73558;BME280;61829;53.286;10.434;2023-03-01T01:04:01;102946.44;;;-4.45;95.37
73558;BME280;61829;53.286;10.434;2023-03-01T01:06:30;102950.00;;;-4.46;95.02
73558;BME280;61829;53.286;10.434;2023-03-01T01:08:56;102932.56;;;-4.50;94.66
73558;BME280;61829;53.286;10.434;2023-03-01T01:11:24;102936.94;;;-4.51;94.68
73558;BME280;61829;53.286;10.434;2023-03-01T01:13:50;102933.44;;;-4.51;95.05
73558;BME280;61829;53.286;10.434;2023-03-01T01:16:18;102935.22;;;-4.52;95.05
73558;BME280;61829;53.286;10.434;2023-03-01T01:18:44;102936.84;;;-4.47;94.78
73558;BME280;61829;53.286;10.434;2023-03-01T01:21:14;102928.16;;;-4.49;94.80
73558;BME280;61829;53.286;10.434;2023-03-01T01:23:41;102930.88;;;-4.53;95.05
73558;BME280;61829;53.286;10.434;2023-03-01T01:26:12;102935.22;;;-4.53;94.84
73558;BME280;61829;53.286;10.434;2023-03-01T01:28:38;102926.53;;;-4.55;95.35
73558;BME280;61829;53.286;10.434;2023-03-01T01:31:05;102929.09;;;-4.54;95.40
73558;BME280;61829;53.286;10.434;2023-03-01T01:33:31;102923.91;;;-4.55;95.19
73558;BME280;61829;53.286;10.434;2023-03-01T01:35:57;102924.84;;;-4.58;94.79
73558;BME280;61829;53.286;10.434;2023-03-01T01:38:23;102919.59;;;-4.59;94.61
73558;BME280;61829;53.286;10.434;2023-03-01T01:40:50;102924.91;;;-4.61;95.21
73558;BME280;61829;53.286;10.434;2023-03-01T01:43:23;102920.53;;;-4.62;95.08
73558;BME280;61829;53.286;10.434;2023-03-01T01:45:55;102910.91;;;-4.63;95.21
73558;BME280;61829;53.286;10.434;2023-03-01T01:48:24;102896.03;;;-4.64;95.26
73558;BME280;61829;53.286;10.434;2023-03-01T01:50:59;102899.56;;;-4.65;95.39
73558;BME280;61829;53.286;10.434;2023-03-01T01:53:26;102889.03;;;-4.65;95.13
73558;BME280;61829;53.286;10.434;2023-03-01T01:55:56;102896.03;;;-4.64;95.36
73558;BME280;61829;53.286;10.434;2023-03-01T01:58:25;102884.63;;;-4.64;95.79
73558;BME280;61829;53.286;10.434;2023-03-01T02:00:53;102889.91;;;-4.64;95.61
73558;BME280;61829;53.286;10.434;2023-03-01T02:03:26;102891.66;;;-4.65;95.51
73558;BME280;61829;53.286;10.434;2023-03-01T02:06:04;102889.88;;;-4.63;95.61
73558;BME280;61829;53.286;10.434;2023-03-01T02:08:33;102903.94;;;-4.64;96.02
73558;BME280;61829;53.286;10.434;2023-03-01T02:11:01;102903.94;;;-4.64;95.85
73558;BME280;61829;53.286;10.434;2023-03-01T02:13:31;102893.41;;;-4.64;95.78
73558;BME280;61829;53.286;10.434;2023-03-01T02:15:57;102875.88;;;-4.65;95.65
73558;BME280;61829;53.286;10.434;2023-03-01T02:18:23;102880.28;;;-4.65;95.82
73558;BME280;61829;53.286;10.434;2023-03-01T02:23:41;102877.72;;;-4.68;95.62
73558;BME280;61829;53.286;10.434;2023-03-01T02:26:36;102872.47;;;-4.68;95.44
73558;BME280;61829;53.286;10.434;2023-03-01T02:29:03;102872.50;;;-4.70;95.71
73558;BME280;61829;53.286;10.434;2023-03-01T02:31:31;102867.22;;;-4.70;96.31
73558;BME280;61829;53.286;10.434;2023-03-01T02:34:15;102871.63;;;-4.69;96.36
73558;BME280;61829;53.286;10.434;2023-03-01T02:39:23;102876.69;;;-4.61;96.48
73558;BME280;61829;53.286;10.434;2023-03-01T02:41:52;102870.56;;;-4.62;96.69
73558;BME280;61829;53.286;10.434;2023-03-01T02:44:20;102868.75;;;-4.60;96.75
73558;BME280;61829;53.286;10.434;2023-03-01T02:46:52;102865.19;;;-4.57;96.50
73558;BME280;61829;53.286;10.434;2023-03-01T02:55:04;102864.25;;;-4.55;96.53
73558;BME280;61829;53.286;10.434;2023-03-01T02:57:33;102858.09;;;-4.54;96.33
73558;BME280;61829;53.286;10.434;2023-03-01T03:00:05;102855.50;;;-4.55;96.02
73558;BME280;61829;53.286;10.434;2023-03-01T03:02:33;102860.78;;;-4.57;95.73
73558;BME280;61829;53.286;10.434;2023-03-01T03:05:13;102857.38;;;-4.60;96.21
73558;BME280;61829;53.286;10.434;2023-03-01T03:07:42;102859.94;;;-4.59;96.25
73558;BME280;61829;53.286;10.434;2023-03-01T03:10:13;102859.06;;;-4.58;95.90
73558;BME280;61829;53.286;10.434;2023-03-01T03:12:40;102853.81;;;-4.58;96.10
73558;BME280;61829;53.286;10.434;2023-03-01T03:15:08;102852.13;;;-4.60;95.39
73558;BME280;61829;53.286;10.434;2023-03-01T03:17:39;102851.25;;;-4.61;95.71
73558;BME280;61829;53.286;10.434;2023-03-01T03:20:06;102849.56;;;-4.63;95.50
73558;BME280;61829;53.286;10.434;2023-03-01T03:22:38;102852.22;;;-4.65;95.74
73558;BME280;61829;53.286;10.434;2023-03-01T03:25:06;102854.03;;;-4.67;95.73
73558;BME280;61829;53.286;10.434;2023-03-01T03:27:40;102847.09;;;-4.69;95.92
73558;BME280;61829;53.286;10.434;2023-03-01T03:30:09;102837.50;;;-4.72;95.76
73558;BME280;61829;53.286;10.434;2023-03-01T03:32:42;102836.69;;;-4.76;95.87
73558;BME280;61829;53.286;10.434;2023-03-01T03:35:22;102826.22;;;-4.77;95.54
73558;BME280;61829;53.286;10.434;2023-03-01T03:37:51;102836.75;;;-4.77;96.03
73558;BME280;61829;53.286;10.434;2023-03-01T03:40:39;102834.09;;;-4.77;95.88
73558;BME280;61829;53.286;10.434;2023-03-01T03:43:08;102842.84;;;-4.77;96.19
73558;BME280;61829;53.286;10.434;2023-03-01T03:45:35;102839.38;;;-4.77;96.52
73558;BME280;61829;53.286;10.434;2023-03-01T03:48:04;102842.00;;;-4.77;95.76
73558;BME280;61829;53.286;10.434;2023-03-01T03:50:30;102831.47;;;-4.77;96.35
73558;BME280;61829;53.286;10.434;2023-03-01T03:52:56;102830.63;;;-4.79;95.89
73558;BME280;61829;53.286;10.434;2023-03-01T03:55:22;102831.56;;;-4.80;95.76
73558;BME280;61829;53.286;10.434;2023-03-01T03:57:48;102835.06;;;-4.81;96.00
73558;BME280;61829;53.286;10.434;2023-03-01T04:00:21;102831.63;;;-4.83;95.63
73558;BME280;61829;53.286;10.434;2023-03-01T04:02:48;102830.78;;;-4.85;95.13
73558;BME280;61829;53.286;10.434;2023-03-01T04:05:16;102824.75;;;-4.89;95.27
73558;BME280;61829;53.286;10.434;2023-03-01T04:07:42;102828.31;;;-4.91;95.71
73558;BME280;61829;53.286;10.434;2023-03-01T04:10:12;102820.44;;;-4.91;95.90
73558;BME280;61829;53.286;10.434;2023-03-01T04:12:38;102825.69;;;-4.91;95.75
73558;BME280;61829;53.286;10.434;2023-03-01T04:15:06;102810.84;;;-4.94;95.92
73558;BME280;61829;53.286;10.434;2023-03-01T04:17:43;102817.88;;;-4.96;95.75
73558;BME280;61829;53.286;10.434;2023-03-01T04:20:11;102815.25;;;-4.96;95.70
73558;BME280;61829;53.286;10.434;2023-03-01T04:22:40;102822.38;;;-5.00;95.58
73558;BME280;61829;53.286;10.434;2023-03-01T04:25:06;102824.22;;;-5.03;95.36
73558;BME280;61829;53.286;10.434;2023-03-01T04:27:33;102816.34;;;-5.05;95.48
73558;BME280;61829;53.286;10.434;2023-03-01T04:29:59;102813.75;;;-5.06;95.20
73558;BME280;61829;53.286;10.434;2023-03-01T04:32:25;102807.66;;;-5.08;95.52
73558;BME280;61829;53.286;10.434;2023-03-01T04:34:51;102808.53;;;-5.08;95.94
73558;BME280;61829;53.286;10.434;2023-03-01T04:37:17;102811.16;;;-5.08;96.49
73558;BME280;61829;53.286;10.434;2023-03-01T04:39:42;102809.38;;;-5.07;96.08
73558;BME280;61829;53.286;10.434;2023-03-01T04:42:16;102814.66;;;-5.07;96.45
73558;BME280;61829;53.286;10.434;2023-03-01T04:44:43;102818.19;;;-5.08;96.31
73558;BME280;61829;53.286;10.434;2023-03-01T04:47:09;102814.66;;;-5.07;96.71
73558;BME280;61829;53.286;10.434;2023-03-01T04:49:35;102819.88;;;-5.06;96.41
73558;BME280;61829;53.286;10.434;2023-03-01T04:52:01;102812.94;;;-5.08;96.28
73558;BME280;61829;53.286;10.434;2023-03-01T04:54:33;102819.13;;;-5.11;95.93
73558;BME280;61829;53.286;10.434;2023-03-01T04:57:00;102817.41;;;-5.12;96.25
73558;BME280;61829;53.286;10.434;2023-03-01T04:59:27;102824.41;;;-5.12;95.99
73558;BME280;61829;53.286;10.434;2023-03-01T05:01:55;102818.31;;;-5.14;96.18
73558;BME280;61829;53.286;10.434;2023-03-01T05:04:25;102820.03;;;-5.13;96.43
73558;BME280;61829;53.286;10.434;2023-03-01T05:06:52;102820.91;;;-5.13;96.53
73558;BME280;61829;53.286;10.434;2023-03-01T05:09:19;102820.84;;;-5.10;97.05
73558;BME280;61829;53.286;10.434;2023-03-01T05:11:45;102826.00;;;-5.05;97.32
73558;BME280;61829;53.286;10.434;2023-03-01T05:14:11;102822.38;;;-5.00;97.69
73558;BME280;61829;53.286;10.434;2023-03-01T05:16:37;102825.84;;;-4.98;97.94
73558;BME280;61829;53.286;10.434;2023-03-01T05:19:03;102821.34;;;-4.92;97.66
73558;BME280;61829;53.286;10.434;2023-03-01T05:21:40;102832.56;;;-4.86;98.02
73558;BME280;61829;53.286;10.434;2023-03-01T05:24:25;102820.97;;;-4.79;98.13
73558;BME280;61829;53.286;10.434;2023-03-01T05:26:52;102820.81;;;-4.71;98.20
73558;BME280;61829;53.286;10.434;2023-03-01T05:29:20;102806.63;;;-4.64;98.52
73558;BME280;61829;53.286;10.434;2023-03-01T05:31:56;102815.19;;;-4.56;98.23
73558;BME280;61829;53.286;10.434;2023-03-01T05:34:26;102813.19;;;-4.47;98.58
73558;BME280;61829;53.286;10.434;2023-03-01T05:36:53;102802.53;;;-4.41;98.47
73558;BME280;61829;53.286;10.434;2023-03-01T05:39:24;102805.09;;;-4.38;98.42
73558;BME280;61829;53.286;10.434;2023-03-01T05:41:52;102805.78;;;-4.32;98.64
73558;BME280;61829;53.286;10.434;2023-03-01T05:44:18;102800.28;;;-4.22;97.97
73558;BME280;61829;53.286;10.434;2023-03-01T05:46:44;102807.13;;;-4.17;98.32
73558;BME280;61829;53.286;10.434;2023-03-01T05:49:11;102806.97;;;-4.11;98.02
73558;BME280;61829;53.286;10.434;2023-03-01T05:51:42;102801.56;;;-4.04;97.97
73558;BME280;61829;53.286;10.434;2023-03-01T05:54:09;102801.38;;;-3.98;97.70
73558;BME280;61829;53.286;10.434;2023-03-01T05:56:36;102806.50;;;-3.94;97.55
73558;BME280;61829;53.286;10.434;2023-03-01T05:59:05;102803.75;;;-3.89;97.56
73558;BME280;61829;53.286;10.434;2023-03-01T06:01:33;102807.91;;;-3.80;97.10
73558;BME280;61829;53.286;10.434;2023-03-01T06:03:59;102802.53;;;-3.77;96.73
73558;BME280;61829;53.286;10.434;2023-03-01T06:06:25;102801.66;;;-3.76;96.92
73558;BME280;61829;53.286;10.434;2023-03-01T06:08:52;102802.44;;;-3.73;97.03
73558;BME280;61829;53.286;10.434;2023-03-01T06:11:18;102799.63;;;-3.68;96.26
73558;BME280;61829;53.286;10.434;2023-03-01T06:13:45;102793.41;;;-3.66;96.23
73558;BME280;61829;53.286;10.434;2023-03-01T06:16:13;102796.78;;;-3.61;96.17
73558;BME280;61829;53.286;10.434;2023-03-01T06:18:39;102798.44;;;-3.56;95.66
73558;BME280;61829;53.286;10.434;2023-03-01T06:21:06;102805.38;;;-3.54;95.39
73558;BME280;61829;53.286;10.434;2023-03-01T06:23:32;102801.88;;;-3.54;95.54
73558;BME280;61829;53.286;10.434;2023-03-01T06:25:59;102794.72;;;-3.49;95.48
73558;BME280;61829;53.286;10.434;2023-03-01T06:28:25;102791.09;;;-3.45;95.20
73558;BME280;61829;53.286;10.434;2023-03-01T06:30:53;102785.66;;;-3.41;95.05
73558;BME280;61829;53.286;10.434;2023-03-01T06:33:19;102785.66;;;-3.41;95.23
73558;BME280;61829;53.286;10.434;2023-03-01T06:35:46;102792.50;;;-3.35;94.62
73558;BME280;61829;53.286;10.434;2023-03-01T06:38:12;102787.97;;;-3.30;94.37
73558;BME280;61829;53.286;10.434;2023-03-01T06:40:40;102791.44;;;-3.28;93.97
73558;BME280;61829;53.286;10.434;2023-03-01T06:43:06;102789.53;;;-3.23;94.73
73558;BME280;61829;53.286;10.434;2023-03-01T06:45:33;102804.47;;;-3.23;94.64
73558;BME280;61829;53.286;10.434;2023-03-01T06:48:07;102802.63;;;-3.20;94.39
73558;BME280;61829;53.286;10.434;2023-03-01T06:50:34;102791.03;;;-3.16;94.14
73558;BME280;61829;53.286;10.434;2023-03-01T06:53:01;102790.91;;;-3.11;94.33
73558;BME280;61829;53.286;10.434;2023-03-01T06:55:28;102800.41;;;-3.05;94.19
73558;BME280;61829;53.286;10.434;2023-03-01T06:57:58;102797.50;;;-2.98;93.54
73558;BME280;61829;53.286;10.434;2023-03-01T07:00:26;102796.44;;;-2.92;93.77
73558;BME280;61829;53.286;10.434;2023-03-01T07:02:52;102794.53;;;-2.87;93.70
73558;BME280;61829;53.286;10.434;2023-03-01T07:05:18;102792.50;;;-2.79;93.97
73558;BME280;61829;53.286;10.434;2023-03-01T07:07:44;102795.75;;;-2.71;93.72
73558;BME280;61829;53.286;10.434;2023-03-01T07:10:10;102804.28;;;-2.62;92.99
73558;BME280;61829;53.286;10.434;2023-03-01T07:12:37;102796.19;;;-2.58;93.61
73558;BME280;61829;53.286;10.434;2023-03-01T07:15:04;102792.50;;;-2.52;93.56
73558;BME280;61829;53.286;10.434;2023-03-01T07:17:30;102805.41;;;-2.43;92.40
73558;BME280;61829;53.286;10.434;2023-03-01T07:19:56;102791.13;;;-2.37;92.86
73558;BME280;61829;53.286;10.434;2023-03-01T07:22:22;102793.47;;;-2.30;92.78
73558;BME280;61829;53.286;10.434;2023-03-01T07:24:48;102796.72;;;-2.21;92.39
73558;BME280;61829;53.286;10.434;2023-03-01T07:27:14;102799.22;;;-2.17;92.06
73558;BME280;61829;53.286;10.434;2023-03-01T07:29:40;102796.25;;;-2.08;91.19
73558;BME280;61829;53.286;10.434;2023-03-01T07:32:05;102793.44;;;-2.03;90.92
73558;BME280;61829;53.286;10.434;2023-03-01T07:34:32;102793.16;;;-1.95;91.19
73558;BME280;61829;53.286;10.434;2023-03-01T07:36:57;102791.09;;;-1.87;90.39
73558;BME280;61829;53.286;10.434;2023-03-01T07:39:24;102798.88;;;-1.83;90.93
73558;BME280;61829;53.286;10.434;2023-03-01T07:41:50;102793.34;;;-1.76;90.01
73558;BME280;61829;53.286;10.434;2023-03-01T07:44:16;102778.03;;;-1.67;90.73
73558;BME280;61829;53.286;10.434;2023-03-01T07:46:43;102780.25;;;-1.56;90.19
73558;BME280;61829;53.286;10.434;2023-03-01T07:49:09;102777.03;;;-1.41;90.29
73558;BME280;61829;53.286;10.434;2023-03-01T07:51:35;102773.84;;;-1.27;89.98
73558;BME280;61829;53.286;10.434;2023-03-01T07:54:01;102773.31;;;-1.13;88.61
73558;BME280;61829;53.286;10.434;2023-03-01T07:56:27;102778.97;;;-1.00;89.12
73558;BME280;61829;53.286;10.434;2023-03-01T07:58:53;102773.78;;;-0.81;90.13
73558;BME280;61829;53.286;10.434;2023-03-01T08:01:20;102771.16;;;-0.61;89.49
73558;BME280;61829;53.286;10.434;2023-03-01T08:03:47;102772.25;;;-0.44;87.94
73558;BME280;61829;53.286;10.434;2023-03-01T08:06:15;102779.59;;;-0.31;87.29
73558;BME280;61829;53.286;10.434;2023-03-01T08:08:41;102778.13;;;-0.17;86.38
73558;BME280;61829;53.286;10.434;2023-03-01T08:11:10;102775.72;;;-0.03;85.13
73558;BME280;61829;53.286;10.434;2023-03-01T08:13:36;102772.69;;;0.06;84.47
73558;BME280;61829;53.286;10.434;2023-03-01T08:16:20;102774.63;;;0.21;85.20
73558;BME280;61829;53.286;10.434;2023-03-01T08:18:46;102777.31;;;0.40;85.43
73558;BME280;61829;53.286;10.434;2023-03-01T08:21:14;102781.88;;;0.56;83.94
73558;BME280;61829;53.286;10.434;2023-03-01T08:23:41;102770.56;;;0.71;82.17
73558;BME280;61829;53.286;10.434;2023-03-01T08:26:10;102776.13;;;0.84;81.96
73558;BME280;61829;53.286;10.434;2023-03-01T08:28:40;102780.00;;;0.96;80.57
73558;BME280;61829;53.286;10.434;2023-03-01T08:33:39;102783.81;;;1.26;80.20
73558;BME280;61829;53.286;10.434;2023-03-01T08:36:06;102782.09;;;1.43;79.34
73558;BME280;61829;53.286;10.434;2023-03-01T08:38:33;102782.59;;;1.51;78.52
73558;BME280;61829;53.286;10.434;2023-03-01T08:41:03;102789.13;;;1.61;78.16
73558;BME280;61829;53.286;10.434;2023-03-01T08:43:29;102780.72;;;1.70;77.67
73558;BME280;61829;53.286;10.434;2023-03-01T08:45:55;102787.34;;;1.79;77.01
73558;BME280;61829;53.286;10.434;2023-03-01T08:48:21;102787.72;;;1.89;76.31
73558;BME280;61829;53.286;10.434;2023-03-01T08:50:47;102781.00;;;1.99;75.33
73558;BME280;61829;53.286;10.434;2023-03-01T08:53:13;102778.53;;;2.12;75.26
73558;BME280;61829;53.286;10.434;2023-03-01T08:55:38;102766.34;;;2.23;74.30
73558;BME280;61829;53.286;10.434;2023-03-01T08:58:04;102770.88;;;2.39;74.52
73558;BME280;61829;53.286;10.434;2023-03-01T09:00:30;102776.13;;;2.56;72.34
73558;BME280;61829;53.286;10.434;2023-03-01T09:02:56;102772.59;;;2.72;72.55
73558;BME280;61829;53.286;10.434;2023-03-01T09:05:22;102771.75;;;2.87;71.54
73558;BME280;61829;53.286;10.434;2023-03-01T09:07:48;102771.72;;;3.03;71.00
73558;BME280;61829;53.286;10.434;2023-03-01T09:10:14;102759.56;;;3.29;69.25
73558;BME280;61829;53.286;10.434;2023-03-01T09:12:40;102754.97;;;3.47;69.48
73558;BME280;61829;53.286;10.434;2023-03-01T09:15:07;102761.69;;;3.68;68.18
73558;BME280;61829;53.286;10.434;2023-03-01T09:17:34;102763.22;;;3.87;66.45
73558;BME280;61829;53.286;10.434;2023-03-01T09:19:59;102771.34;;;3.99;64.84
73558;BME280;61829;53.286;10.434;2023-03-01T09:22:25;102765.13;;;4.13;61.56
73558;BME280;61829;53.286;10.434;2023-03-01T09:24:51;102769.63;;;4.27;61.72
73558;BME280;61829;53.286;10.434;2023-03-01T09:27:17;102766.28;;;4.38;61.55
73558;BME280;61829;53.286;10.434;2023-03-01T09:29:44;102778.00;;;4.49;61.28
73558;BME280;61829;53.286;10.434;2023-03-01T09:32:10;102769.97;;;4.64;61.45
73558;BME280;61829;53.286;10.434;2023-03-01T09:34:36;102764.13;;;4.71;60.97
73558;BME280;61829;53.286;10.434;2023-03-01T09:37:22;102767.81;;;4.83;60.45
73558;BME280;61829;53.286;10.434;2023-03-01T09:39:48;102766.47;;;4.90;61.03
73558;BME280;61829;53.286;10.434;2023-03-01T09:42:14;102758.56;;;4.89;61.28
73558;BME280;61829;53.286;10.434;2023-03-01T09:47:28;102768.41;;;5.15;61.05
73558;BME280;61829;53.286;10.434;2023-03-01T09:50:12;102766.16;;;5.49;59.77
73558;BME280;61829;53.286;10.434;2023-03-01T09:52:46;102764.44;;;5.61;59.58
73558;BME280;61829;53.286;10.434;2023-03-01T09:58:44;102768.13;;;6.11;59.46
73558;BME280;61829;53.286;10.434;2023-03-01T10:03:58;102764.38;;;6.26;59.42
73558;BME280;61829;53.286;10.434;2023-03-01T10:06:26;102767.22;;;6.49;59.14
73558;BME280;61829;53.286;10.434;2023-03-01T10:09:02;102766.16;;;6.51;58.38
73558;BME280;61829;53.286;10.434;2023-03-01T10:11:36;102767.75;;;6.54;59.63
73558;BME280;61829;53.286;10.434;2023-03-01T10:19:45;102760.28;;;7.07;58.31
73558;BME280;61829;53.286;10.434;2023-03-01T10:22:25;102759.38;;;7.19;58.25
73558;BME280;61829;53.286;10.434;2023-03-01T10:24:56;102755.53;;;7.35;59.08
73558;BME280;61829;53.286;10.434;2023-03-01T10:27:51;102749.88;;;7.62;57.60
73558;BME280;61829;53.286;10.434;2023-03-01T10:30:21;102756.63;;;7.79;57.13
73558;BME280;61829;53.286;10.434;2023-03-01T10:32:50;102746.25;;;7.74;57.75
73558;BME280;61829;53.286;10.434;2023-03-01T10:35:23;102741.97;;;7.72;56.51
73558;BME280;61829;53.286;10.434;2023-03-01T10:38:03;102741.72;;;7.75;57.20
73558;BME280;61829;53.286;10.434;2023-03-01T10:40:30;102744.91;;;7.69;57.71
73558;BME280;61829;53.286;10.434;2023-03-01T10:43:02;102746.72;;;7.68;57.79
73558;BME280;61829;53.286;10.434;2023-03-01T10:48:19;102740.41;;;7.80;56.68
73558;BME280;61829;53.286;10.434;2023-03-01T10:50:51;102739.66;;;7.78;57.37
73558;BME280;61829;53.286;10.434;2023-03-01T10:53:34;102732.47;;;7.79;57.44
73558;BME280;61829;53.286;10.434;2023-03-01T10:58:34;102739.41;;;7.59;59.32
73558;BME280;61829;53.286;10.434;2023-03-01T11:03:36;102732.72;;;7.76;59.45
73558;BME280;61829;53.286;10.434;2023-03-01T11:06:26;102739.56;;;7.91;59.76
73558;BME280;61829;53.286;10.434;2023-03-01T11:08:51;102732.84;;;7.97;59.41
73558;BME280;61829;53.286;10.434;2023-03-01T11:11:34;102732.50;;;7.90;59.07
73558;BME280;61829;53.286;10.434;2023-03-01T11:14:07;102739.22;;;7.96;59.16
73558;BME280;61829;53.286;10.434;2023-03-01T11:16:35;102735.66;;;7.95;59.96
73558;BME280;61829;53.286;10.434;2023-03-01T11:21:37;102730.03;;;8.21;59.55
73558;BME280;61829;53.286;10.434;2023-03-01T11:24:08;102724.31;;;8.25;59.16
73558;BME280;61829;53.286;10.434;2023-03-01T11:26:39;102719.94;;;8.36;58.64
73558;BME280;61829;53.286;10.434;2023-03-01T11:29:13;102722.72;;;8.34;59.68
73558;BME280;61829;53.286;10.434;2023-03-01T11:31:42;102719.31;;;8.43;59.46
73558;BME280;61829;53.286;10.434;2023-03-01T11:34:16;102717.88;;;8.39;58.77
73558;BME280;61829;53.286;10.434;2023-03-01T11:36:52;102717.25;;;8.47;59.24
73558;BME280;61829;53.286;10.434;2023-03-01T11:42:20;102721.50;;;8.61;58.52
73558;BME280;61829;53.286;10.434;2023-03-01T11:44:54;102707.44;;;8.57;59.02
73558;BME280;61829;53.286;10.434;2023-03-01T11:55:42;102705.53;;;8.48;60.10
73558;BME280;61829;53.286;10.434;2023-03-01T12:20:01;102667.59;;;8.73;61.29
73558;BME280;61829;53.286;10.434;2023-03-01T12:22:37;102662.06;;;8.86;60.97
73558;BME280;61829;53.286;10.434;2023-03-01T12:30:57;102659.16;;;8.78;62.53
73558;BME280;61829;53.286;10.434;2023-03-01T12:41:43;102646.50;;;9.11;62.84
73558;BME280;61829;53.286;10.434;2023-03-01T12:44:27;102636.75;;;9.10;62.01
73558;BME280;61829;53.286;10.434;2023-03-01T12:54:30;102620.69;;;8.98;61.72
73558;BME280;61829;53.286;10.434;2023-03-01T12:57:02;102616.72;;;8.82;61.07
73558;BME280;61829;53.286;10.434;2023-03-01T12:59:42;102613.34;;;8.68;61.83
73558;BME280;61829;53.286;10.434;2023-03-01T13:05:39;102618.41;;;8.62;63.02
73558;BME280;61829;53.286;10.434;2023-03-01T13:07:58;102619.34;;;8.72;62.71
73558;BME280;61829;53.286;10.434;2023-03-01T13:17:55;102610.25;;;8.84;63.08
73558;BME280;61829;53.286;10.434;2023-03-01T13:23:29;102607.59;;;8.73;62.19
73558;BME280;61829;53.286;10.434;2023-03-01T13:31:00;102611.34;;;9.03;61.63
73558;BME280;61829;53.286;10.434;2023-03-01T13:35:57;102603.91;;;9.06;63.25
73558;BME280;61829;53.286;10.434;2023-03-01T13:41:13;102598.84;;;9.13;60.44
73558;BME280;61829;53.286;10.434;2023-03-01T13:43:42;102595.69;;;9.08;60.64
73558;BME280;61829;53.286;10.434;2023-03-01T13:46:21;102590.72;;;9.03;61.38
73558;BME280;61829;53.286;10.434;2023-03-01T13:48:54;102584.03;;;8.97;60.71
73558;BME280;61829;53.286;10.434;2023-03-01T13:51:26;102582.66;;;9.03;61.29
73558;BME280;61829;53.286;10.434;2023-03-01T13:53:55;102579.09;;;9.03;59.87
73558;BME280;61829;53.286;10.434;2023-03-01T13:56:24;102578.97;;;9.04;59.96
73558;BME280;61829;53.286;10.434;2023-03-01T14:01:40;102582.50;;;9.05;60.22
73558;BME280;61829;53.286;10.434;2023-03-01T14:04:27;102580.41;;;9.08;59.84
73558;BME280;61829;53.286;10.434;2023-03-01T14:07:12;102580.41;;;9.08;60.53
73558;BME280;61829;53.286;10.434;2023-03-01T14:09:43;102578.69;;;9.07;59.83
73558;BME280;61829;53.286;10.434;2023-03-01T14:17:58;102559.75;;;8.88;63.03
73558;BME280;61829;53.286;10.434;2023-03-01T14:20:38;102559.47;;;8.91;62.00
73558;BME280;61829;53.286;10.434;2023-03-01T14:23:12;102559.38;;;8.92;61.86
73558;BME280;61829;53.286;10.434;2023-03-01T14:25:49;102560.06;;;8.94;60.66
73558;BME280;61829;53.286;10.434;2023-03-01T14:28:19;102553.72;;;8.95;60.98
73558;BME280;61829;53.286;10.434;2023-03-01T14:30:51;102547.34;;;8.96;61.03
73558;BME280;61829;53.286;10.434;2023-03-01T14:33:34;102551.16;;;8.94;60.81
73558;BME280;61829;53.286;10.434;2023-03-01T14:36:09;102530.59;;;8.83;61.08
73558;BME280;61829;53.286;10.434;2023-03-01T14:38:45;102544.16;;;8.82;61.27
73558;BME280;61829;53.286;10.434;2023-03-01T14:41:17;102538.31;;;8.76;61.32
73558;BME280;61829;53.286;10.434;2023-03-01T14:43:46;102531.25;;;8.75;61.76
73558;BME280;61829;53.286;10.434;2023-03-01T14:46:19;102529.78;;;8.71;61.67
73558;BME280;61829;53.286;10.434;2023-03-01T14:48:51;102526.25;;;8.71;61.62
73558;BME280;61829;53.286;10.434;2023-03-01T14:51:19;102520.41;;;8.66;61.72
73558;BME280;61829;53.286;10.434;2023-03-01T14:53:44;102518.13;;;8.61;62.04
73558;BME280;61829;53.286;10.434;2023-03-01T14:56:15;102519.22;;;8.59;62.46
73558;BME280;61829;53.286;10.434;2023-03-01T14:58:43;102523.50;;;8.61;62.31
73558;BME280;61829;53.286;10.434;2023-03-01T15:01:13;102515.28;;;8.63;62.36